Time;durP1;ratioP1;P1;durP2;ratioP2;P2;SDS_P1;SDS_P2;PMS_P1;PMS_P2;Temp;Humidity;BMP_temperature;BMP_pressure;BME280_temperature;BME280_humidity;BME280_pressure;Samples;Min_cycle;Max_cycle;Signal;HPM_P1;HPM_P2
2022/07/03 00:01:47;;;;;;;1.40;1.30;;;17.80;99.90;;;;;;5037257;28;20181;-77
2022/07/03 00:04:13;;;;;;;1.50;1.40;;;17.70;99.90;;;;;;5037414;28;20201;-76
2022/07/03 00:06:39;;;;;;;1.50;1.40;;;17.30;99.90;;;;;;5037075;28;20181;-77
2022/07/03 00:09:05;;;;;;;1.60;1.50;;;17.20;99.90;;;;;;5037197;28;20631;-77
2022/07/03 00:11:32;;;;;;;1.30;1.20;;;17.40;99.90;;;;;;5037297;28;20185;-77
2022/07/03 00:13:58;;;;;;;1.50;1.40;;;17.20;99.90;;;;;;5036947;28;20255;-78
2022/07/03 00:16:24;;;;;;;2.97;1.80;;;17.10;99.90;;;;;;5037043;28;20200;-77
2022/07/03 00:18:50;;;;;;;1.67;1.57;;;17.20;99.90;;;;;;5037020;28;20659;-77
2022/07/03 00:21:51;;;;;;;1.73;1.50;;;17.10;99.90;;;;;;5036833;28;20655;-77
2022/07/03 00:24:44;;;;;;;1.37;1.27;;;17.00;99.90;;;;;;5053504;28;20242;-77
2022/07/03 00:27:11;;;;;;;1.70;1.60;;;16.80;99.90;;;;;;5053340;28;20205;-77
2022/07/03 00:29:40;;;;;;;2.73;1.60;;;16.40;99.90;;;;;;5036631;28;20761;-78
2022/07/03 00:32:09;;;;;;;1.53;1.43;;;16.50;99.90;;;;;;5053350;28;20173;-76
2022/07/03 00:34:35;;;;;;;1.50;1.40;;;16.50;99.90;;;;;;5053390;28;20198;-77
2022/07/03 00:37:01;;;;;;;2.33;1.60;;;16.60;99.90;;;;;;5036695;28;20184;-77
2022/07/03 00:39:28;;;;;;;1.70;1.60;;;16.60;99.90;;;;;;5053218;28;20178;-77
2022/07/03 00:42:02;;;;;;;1.63;1.53;;;16.60;99.90;;;;;;5052960;28;20551;-77
2022/07/03 00:44:37;;;;;;;1.87;1.50;;;16.50;99.90;;;;;;5052998;28;20568;-76
2022/07/03 00:47:06;;;;;;;2.43;1.73;;;16.50;99.90;;;;;;5037227;28;20207;-77
2022/07/03 00:49:35;;;;;;;2.33;1.70;;;16.50;99.90;;;;;;5036663;28;20209;-77
2022/07/03 00:52:05;;;;;;;2.07;1.50;;;16.50;99.90;;;;;;5052746;28;20173;-77
2022/07/03 00:54:34;;;;;;;1.97;1.60;;;16.50;99.90;;;;;;5036178;28;20300;-77
2022/07/03 00:57:01;;;;;;;1.97;1.50;;;16.60;99.90;;;;;;5036438;28;20643;-77
2022/07/03 00:59:27;;;;;;;1.60;1.50;;;16.50;99.90;;;;;;5052872;28;20300;-77
2022/07/03 01:02:03;;;;;;;1.60;1.50;;;16.50;99.90;;;;;;5036048;28;20213;-76
2022/07/03 01:04:48;;;;;;;3.10;1.60;;;16.40;99.90;;;;;;5052812;28;20305;-77
2022/07/03 01:07:36;;;;;;;2.00;1.63;;;16.40;99.90;;;;;;5052816;28;20219;-77
2022/07/03 01:10:39;;;;;;;1.73;1.63;;;16.40;99.90;;;;;;5052219;28;20201;-77
2022/07/03 01:13:34;;;;;;;1.73;1.63;;;16.50;99.90;;;;;;5052386;28;20181;-78
2022/07/03 01:16:44;;;;;;;1.70;1.60;;;16.40;99.90;;;;;;5041687;28;20193;-77
2022/07/03 01:19:15;;;;;;;1.60;1.50;;;16.60;99.90;;;;;;5025498;28;20186;-76
2022/07/03 01:21:56;;;;;;;1.60;1.50;;;16.40;99.90;;;;;;5052282;28;20212;-77
2022/07/03 01:24:44;;;;;;;1.93;1.60;;;16.00;99.90;;;;;;5052295;28;20197;-77
2022/07/03 01:27:16;;;;;;;1.83;1.73;;;15.80;99.90;;;;;;5052225;28;20217;-77
2022/07/03 01:30:05;;;;;;;1.90;1.60;;;15.80;99.90;;;;;;5035575;28;20213;-77
2022/07/03 01:32:41;;;;;;;1.90;1.70;;;15.90;99.90;;;;;;5052236;28;20178;-76
2022/07/03 01:35:08;;;;;;;1.83;1.73;;;15.90;99.90;;;;;;5035729;28;20197;-76
2022/07/03 01:37:38;;;;;;;1.77;1.50;;;15.60;99.90;;;;;;5052088;28;20231;-77
2022/07/03 01:40:05;;;;;;;1.60;1.50;;;15.50;99.90;;;;;;5035342;28;20728;-76
2022/07/03 01:42:33;;;;;;;2.80;1.80;;;15.50;99.90;;;;;;5051664;28;20180;-77
2022/07/03 01:45:00;;;;;;;1.60;1.50;;;15.30;99.90;;;;;;5035146;28;20205;-76
2022/07/03 01:47:28;;;;;;;1.70;1.60;;;15.30;99.90;;;;;;5035377;28;20540;-76
2022/07/03 01:49:54;;;;;;;1.70;1.60;;;15.20;99.90;;;;;;5051941;28;20228;-77
2022/07/03 01:52:21;;;;;;;1.70;1.60;;;15.30;99.90;;;;;;5051659;28;20185;-77
2022/07/03 01:54:49;;;;;;;61.00;12.57;;;15.30;99.90;;;;;;5035283;28;20683;-77
2022/07/03 01:57:15;;;;;;;1.80;1.50;;;15.20;99.90;;;;;;5035202;28;20264;-76
2022/07/03 01:59:41;;;;;;;2.47;1.77;;;15.30;99.90;;;;;;5051664;28;20174;-77
2022/07/03 02:02:32;;;;;;;2.10;1.90;;;15.30;99.90;;;;;;5034809;28;20181;-77
2022/07/03 02:05:12;;;;;;;1.83;1.73;;;15.30;99.90;;;;;;5051592;28;20194;-76
2022/07/03 02:07:46;;;;;;;3.20;1.70;;;15.30;99.90;;;;;;5051489;28;20197;-76
2022/07/03 02:10:16;;;;;;;1.80;1.70;;;15.20;99.90;;;;;;5051955;28;20183;-76
2022/07/03 02:12:49;;;;;;;1.90;1.80;;;15.20;99.90;;;;;;5051489;28;20173;-77
2022/07/03 02:15:18;;;;;;;3.20;1.70;;;15.10;99.90;;;;;;5051567;28;20200;-77
2022/07/03 02:17:46;;;;;;;2.10;1.90;;;15.30;99.90;;;;;;5034974;28;20177;-77
2022/07/03 02:20:15;;;;;;;1.70;1.60;;;15.30;99.90;;;;;;5051286;28;20182;-76
2022/07/03 02:22:44;;;;;;;1.87;1.77;;;15.30;99.90;;;;;;5034206;28;20227;-77
2022/07/03 02:25:21;;;;;;;2.47;1.80;;;15.40;99.90;;;;;;5034612;28;20255;-77
2022/07/03 02:27:57;;;;;;;1.90;1.80;;;15.10;99.90;;;;;;5035036;28;20181;-76
2022/07/03 02:30:27;;;;;;;1.70;1.60;;;15.00;99.90;;;;;;5050947;28;20181;-78
2022/07/03 02:32:57;;;;;;;1.90;1.70;;;14.90;99.90;;;;;;5051160;28;20585;-77
2022/07/03 02:35:27;;;;;;;1.90;1.80;;;14.90;99.90;;;;;;5034976;28;20213;-77
2022/07/03 02:38:15;;;;;;;2.70;1.80;;;14.90;99.90;;;;;;5051251;28;20173;-77
2022/07/03 02:40:49;;;;;;;1.97;1.80;;;14.80;99.90;;;;;;5051145;28;20197;-77
2022/07/03 02:43:30;;;;;;;1.80;1.70;;;14.90;99.90;;;;;;5050937;28;20177;-77
2022/07/03 02:48:56;;;;;;;2.00;1.90;;;15.00;99.90;;;;;;5052291;28;20208;-76
2022/07/03 02:51:26;;;;;;;1.90;1.70;;;14.90;99.90;;;;;;5050856;28;20174;-77
2022/07/03 02:54:03;;;;;;;1.90;1.80;;;14.80;99.90;;;;;;5050708;28;20251;-76
2022/07/03 02:56:42;;;;;;;2.23;1.73;;;14.80;99.90;;;;;;5034607;28;20699;-76
2022/07/03 02:59:33;;;;;;;2.23;2.03;;;14.70;99.90;;;;;;5050928;28;20197;-77
2022/07/03 03:02:07;;;;;;;2.00;1.90;;;14.70;99.90;;;;;;5050790;28;20180;-79
2022/07/03 03:04:34;;;;;;;1.90;1.80;;;14.50;99.90;;;;;;5050680;28;20196;-79
2022/07/03 03:07:12;;;;;;;2.10;2.00;;;14.60;99.90;;;;;;5050574;28;20173;-79
2022/07/03 03:09:44;;;;;;;1.80;1.70;;;14.60;99.90;;;;;;5050723;28;20209;-79
2022/07/03 03:12:11;;;;;;;1.83;1.73;;;14.90;99.90;;;;;;5033707;28;20185;-80
2022/07/03 03:14:47;;;;;;;2.70;1.80;;;14.90;99.90;;;;;;5034254;28;20194;-79
2022/07/03 03:17:19;;;;;;;1.80;1.70;;;14.90;99.90;;;;;;5050723;28;20518;-79
2022/07/03 03:19:49;;;;;;;1.87;1.73;;;14.80;99.90;;;;;;5034294;28;20189;-79
2022/07/03 03:22:51;;;;;;;2.03;1.70;;;14.70;99.90;;;;;;5050318;28;20197;-78
2022/07/03 03:25:17;;;;;;;2.90;1.87;;;14.70;99.90;;;;;;5050684;28;20675;-79
2022/07/03 03:27:43;;;;;;;1.93;1.60;;;14.60;99.90;;;;;;5034082;28;20217;-79
2022/07/03 03:30:09;;;;;;;2.50;1.87;;;14.70;99.90;;;;;;5034036;28;20296;-78
2022/07/03 03:32:36;;;;;;;1.90;1.70;;;14.60;99.90;;;;;;5033782;28;20204;-79
2022/07/03 03:35:02;;;;;;;2.00;1.90;;;14.60;99.90;;;;;;5053702;28;20220;-78
2022/07/03 03:37:28;;;;;;;2.10;1.80;;;14.70;99.90;;;;;;5037883;28;20177;-78
2022/07/03 03:39:54;;;;;;;2.27;2.03;;;14.70;99.90;;;;;;5037868;28;20190;-79
2022/07/03 03:42:19;;;;;;;1.87;1.77;;;14.70;99.90;;;;;;5037457;28;20701;-79
2022/07/03 03:44:45;;;;;;;2.27;1.73;;;14.60;99.90;;;;;;5037514;28;20209;-79
2022/07/03 03:47:11;;;;;;;1.80;1.70;;;14.60;99.90;;;;;;5037677;28;20186;-79
2022/07/03 03:49:36;;;;;;;1.83;1.73;;;14.60;99.90;;;;;;5037482;28;20251;-79
2022/07/03 03:52:02;;;;;;;1.90;1.63;;;14.50;99.90;;;;;;5037195;28;20177;-79
2022/07/03 03:54:28;;;;;;;1.80;1.70;;;14.40;99.90;;;;;;5076363;23;20221;-77
2022/07/03 03:56:54;;;;;;;1.90;1.80;;;14.50;99.90;;;;;;5054060;28;20177;-77
2022/07/03 03:59:19;;;;;;;2.10;1.90;;;14.40;99.90;;;;;;5053947;28;20177;-77
2022/07/03 04:01:47;;;;;;;1.97;1.83;;;14.40;99.90;;;;;;5037134;28;20188;-77
2022/07/03 04:04:17;;;;;;;2.00;1.90;;;14.40;99.90;;;;;;5053795;28;20270;-77
2022/07/03 04:06:43;;;;;;;2.30;1.73;;;14.30;99.90;;;;;;5037624;28;20634;-77
2022/07/03 04:09:09;;;;;;;2.50;1.90;;;14.30;99.90;;;;;;5036938;28;20301;-77
2022/07/03 04:11:34;;;;;;;1.93;1.73;;;14.40;99.90;;;;;;5053780;28;20205;-77
2022/07/03 04:14:00;;;;;;;2.10;1.83;;;14.40;99.90;;;;;;5020493;28;20240;-77
2022/07/03 04:16:25;;;;;;;1.90;1.80;;;14.40;99.90;;;;;;5020948;28;20260;-77
2022/07/03 04:18:51;;;;;;;2.10;1.90;;;14.40;99.90;;;;;;5053498;28;20181;-77
2022/07/03 04:21:16;;;;;;;2.03;1.90;;;14.40;99.90;;;;;;5036800;28;20184;-77
2022/07/03 04:23:42;;;;;;;2.00;1.90;;;14.40;99.90;;;;;;5036659;28;20231;-77
2022/07/03 04:26:08;;;;;;;2.20;1.80;;;14.40;99.90;;;;;;5036809;28;20201;-77
2022/07/03 04:28:33;;;;;;;2.40;1.93;;;14.30;99.90;;;;;;5020356;28;20209;-77
2022/07/03 04:30:59;;;;;;;2.03;1.93;;;14.30;99.90;;;;;;5020416;28;20178;-77
2022/07/03 04:33:25;;;;;;;3.10;2.20;;;14.50;99.90;;;;;;5054264;28;20170;-77
2022/07/03 04:35:51;;;;;;;1.90;1.80;;;14.50;99.90;;;;;;5036659;28;20197;-77
2022/07/03 04:38:16;;;;;;;1.97;1.80;;;14.50;99.90;;;;;;5020269;28;20266;-77
2022/07/03 04:40:42;;;;;;;2.20;2.00;;;14.50;99.90;;;;;;5020040;28;20185;-77
2022/07/03 04:43:07;;;;;;;2.10;1.90;;;14.50;99.90;;;;;;5036299;28;20192;-77
2022/07/03 04:45:33;;;;;;;3.03;2.10;;;14.60;99.90;;;;;;5052040;28;20726;-77
2022/07/03 04:47:58;;;;;;;2.00;1.90;;;14.60;99.90;;;;;;5019906;28;20185;-77
2022/07/03 04:50:24;;;;;;;2.70;1.90;;;14.70;99.90;;;;;;5036436;28;20208;-79
2022/07/03 04:52:50;;;;;;;1.80;1.70;;;14.60;99.90;;;;;;5019568;28;20224;-79
2022/07/03 04:55:15;;;;;;;2.00;1.90;;;14.60;99.90;;;;;;5052682;28;20213;-79
2022/07/03 04:57:41;;;;;;;2.37;2.17;;;14.60;99.90;;;;;;5052920;28;20277;-78
2022/07/03 05:00:07;;;;;;;2.10;2.00;;;14.70;99.90;;;;;;5052941;28;20185;-79
2022/07/03 05:02:33;;;;;;;2.00;1.90;;;14.80;99.90;;;;;;5036064;28;20182;-79
2022/07/03 05:04:58;;;;;;;2.30;2.10;;;14.80;99.90;;;;;;5052753;28;20259;-79
2022/07/03 05:07:24;;;;;;;2.30;2.10;;;14.90;99.90;;;;;;5052804;28;20178;-79
2022/07/03 05:09:50;;;;;;;2.70;2.43;;;15.00;99.90;;;;;;5036071;28;20209;-79
2022/07/03 05:12:16;;;;;;;2.47;2.27;;;15.10;99.90;;;;;;5019643;28;20174;-77
2022/07/03 05:14:41;;;;;;;2.63;2.43;;;15.20;99.90;;;;;;5019662;28;20193;-78
2022/07/03 05:17:07;;;;;;;2.70;2.43;;;15.30;99.90;;;;;;5020217;28;20174;-78
2022/07/03 05:19:32;;;;;;;2.53;2.33;;;15.40;99.90;;;;;;5020064;28;20240;-79
2022/07/03 05:21:58;;;;;;;2.70;2.50;;;15.60;99.90;;;;;;5019441;28;20177;-78
2022/07/03 05:24:23;;;;;;;2.87;2.23;;;15.70;99.90;;;;;;5019387;28;20197;-78
2022/07/03 05:26:50;;;;;;;3.33;2.30;;;15.70;99.90;;;;;;5019452;28;20259;-79
2022/07/03 05:29:15;;;;;;;2.60;2.40;;;15.80;99.90;;;;;;5035827;28;20707;-78
2022/07/03 05:31:41;;;;;;;3.03;2.67;;;15.80;99.90;;;;;;5019082;28;20174;-78
2022/07/03 05:34:08;;;;;;;2.70;2.50;;;15.80;99.90;;;;;;5019282;28;20263;-77
2022/07/03 05:36:33;;;;;;;2.50;2.30;;;15.80;99.90;;;;;;5036027;28;20166;-78
2022/07/03 05:41:43;;;;;;;2.20;2.00;;;16.00;99.90;;;;;;5052490;28;20319;-78
2022/07/03 05:44:09;;;;;;;2.90;2.10;;;16.00;99.90;;;;;;5051819;28;20239;-78
2022/07/03 05:46:34;;;;;;;2.50;2.30;;;16.10;99.90;;;;;;5018968;28;20257;-79
2022/07/03 05:49:00;;;;;;;2.40;2.03;;;16.30;99.90;;;;;;5018923;28;20213;-78
2022/07/03 05:51:26;;;;;;;2.43;2.23;;;16.40;99.90;;;;;;5051790;28;20245;-78
2022/07/03 05:53:51;;;;;;;2.70;2.50;;;16.90;99.90;;;;;;5051941;28;20181;-78
2022/07/03 05:56:17;;;;;;;2.60;2.40;;;17.60;99.90;;;;;;5035179;28;20213;-78
2022/07/03 05:58:42;;;;;;;2.60;2.40;;;18.30;99.90;;;;;;5019019;28;20189;-78
2022/07/03 06:01:08;;;;;;;2.50;2.30;;;18.30;99.90;;;;;;5019529;28;20270;-78
2022/07/03 06:03:34;;;;;;;2.27;2.03;;;18.60;99.90;;;;;;5052303;28;20644;-78
2022/07/03 06:05:59;;;;;;;7.57;3.70;;;19.30;99.90;;;;;;5018752;28;20288;-77
2022/07/03 06:08:25;;;;;;;17.00;7.27;;;19.50;99.90;;;;;;5051513;28;20241;-77
2022/07/03 06:10:50;;;;;;;14.90;6.93;;;19.40;99.90;;;;;;5034967;28;20220;-77
2022/07/03 06:13:16;;;;;;;18.97;8.57;;;19.30;99.90;;;;;;5051159;28;20223;-77
2022/07/03 06:15:42;;;;;;;7.53;4.77;;;19.20;99.90;;;;;;5034939;28;20236;-77
2022/07/03 06:18:07;;;;;;;3.60;2.50;;;19.10;99.90;;;;;;5018590;28;20554;-78
2022/07/03 06:20:33;;;;;;;10.00;5.10;;;19.10;99.90;;;;;;5018197;28;20554;-77
2022/07/03 06:22:58;;;;;;;7.03;3.90;;;19.30;99.90;;;;;;5051190;28;20210;-77
2022/07/03 06:25:24;;;;;;;3.93;2.70;;;19.70;99.90;;;;;;5018216;28;20198;-78
2022/07/03 06:27:49;;;;;;;3.07;2.00;;;20.00;99.90;;;;;;5034469;28;20598;-78
2022/07/03 06:30:15;;;;;;;2.30;2.10;;;20.20;99.90;;;;;;5018003;28;20202;-77
2022/07/03 06:32:41;;;;;;;2.70;2.10;;;20.00;99.90;;;;;;5068134;28;20671;-77
2022/07/03 06:35:07;;;;;;;2.30;1.97;;;19.80;99.90;;;;;;5034714;28;20193;-79
2022/07/03 06:37:32;;;;;;;3.57;2.10;;;19.90;99.90;;;;;;5034572;28;20205;-78
2022/07/03 06:39:58;;;;;;;2.00;1.80;;;20.00;99.90;;;;;;5034693;28;20255;-79
2022/07/03 06:42:23;;;;;;;2.13;1.93;;;20.20;99.90;;;;;;5017726;28;20182;-77
2022/07/03 06:44:49;;;;;;;1.80;1.70;;;20.40;99.90;;;;;;5017681;28;20198;-78
2022/07/03 06:47:15;;;;;;;1.60;1.50;;;20.50;99.90;;;;;;5034958;28;20181;-79
2022/07/03 06:49:42;;;;;;;1.70;1.60;;;20.30;99.90;;;;;;5034355;28;20205;-78
2022/07/03 06:52:08;;;;;;;2.72;1.50;;;20.30;99.90;;;;;;5034526;28;20182;-78
2022/07/03 06:54:34;;;;;;;2.83;1.80;;;20.30;99.90;;;;;;5018005;28;20263;-78
2022/07/03 06:56:59;;;;;;;2.53;1.60;;;20.40;99.90;;;;;;5018247;28;20658;-82
2022/07/03 06:59:25;;;;;;;1.80;1.48;;;20.40;99.90;;;;;;5035333;28;20181;-79
2022/07/03 07:01:50;;;;;;;1.55;1.40;;;20.60;99.90;;;;;;5018533;28;20534;-79
2022/07/03 07:04:16;;;;;;;2.35;1.40;;;20.80;99.90;;;;;;5018791;28;20279;-79
2022/07/03 07:06:41;;;;;;;1.80;1.20;;;20.90;99.90;;;;;;5035474;28;20231;-79
2022/07/03 07:09:07;;;;;;;1.65;1.55;;;21.10;99.90;;;;;;5019738;28;20201;-78
2022/07/03 07:11:33;;;;;;;1.70;1.60;;;21.20;99.90;;;;;;5039561;28;20177;-80
2022/07/03 07:13:58;;;;;;;1.40;1.30;;;21.30;99.90;;;;;;5039091;28;20178;-80
2022/07/03 07:16:24;;;;;;;1.92;1.60;;;21.50;99.90;;;;;;5022723;28;20739;-78
2022/07/03 07:18:50;;;;;;;1.42;1.30;;;21.60;99.90;;;;;;5021982;28;20184;-79
2022/07/03 07:21:15;;;;;;;1.30;1.20;;;21.70;99.90;;;;;;5022951;28;20184;-79
2022/07/03 07:23:41;;;;;;;3.95;1.35;;;21.80;99.90;;;;;;5038202;28;20268;-79
2022/07/03 07:26:07;;;;;;;1.73;1.30;;;21.80;99.90;;;;;;5054820;28;20197;-79
2022/07/03 07:28:34;;;;;;;1.73;1.40;;;21.90;99.90;;;;;;5021691;28;20213;-79
2022/07/03 07:31:00;;;;;;;1.40;1.30;;;22.00;99.90;;;;;;5038873;28;20184;-79
2022/07/03 07:33:26;;;;;;;1.50;1.40;;;22.20;99.90;;;;;;5021668;28;20261;-79
2022/07/03 07:35:52;;;;;;;2.22;1.48;;;22.30;99.90;;;;;;5037812;28;20198;-78
2022/07/03 07:38:18;;;;;;;2.70;1.30;;;22.40;99.90;;;;;;5038095;28;20182;-78
2022/07/03 07:40:44;;;;;;;1.42;1.30;;;22.50;99.90;;;;;;5070991;28;20635;-78
2022/07/03 07:43:09;;;;;;;1.70;1.58;;;22.50;99.90;;;;;;5054117;28;20262;-78
2022/07/03 07:45:35;;;;;;;1.90;1.50;;;22.60;99.90;;;;;;5021270;28;20197;-79
2022/07/03 07:48:01;;;;;;;2.30;1.33;;;22.70;99.90;;;;;;5037660;28;20632;-79
2022/07/03 07:50:27;;;;;;;2.72;1.50;;;22.80;99.90;;;;;;5054195;28;20200;-78
2022/07/03 07:52:53;;;;;;;1.73;1.38;;;22.90;99.90;;;;;;5070744;28;20198;-78
2022/07/03 07:55:20;;;;;;;1.30;1.20;;;22.90;99.90;;;;;;5037222;28;20213;-78
2022/07/03 07:57:46;;;;;;;1.90;1.38;;;23.10;99.90;;;;;;5037555;28;20185;-79
2022/07/03 08:00:14;;;;;;;2.05;1.30;;;23.20;99.90;;;;;;5037382;28;20182;-78
2022/07/03 08:05:37;;;;;;;1.38;1.27;;;23.40;99.90;;;;;;5055371;28;20193;-79
2022/07/03 08:08:08;;;;;;;1.88;1.30;;;23.60;99.90;;;;;;5055008;28;20198;-78
2022/07/03 08:10:44;;;;;;;2.35;1.45;;;23.70;99.90;;;;;;5038009;28;20174;-78
2022/07/03 08:13:12;;;;;;;2.25;1.40;;;23.80;99.90;;;;;;5022168;28;20181;-78
2022/07/03 08:15:38;;;;;;;1.30;1.20;;;23.90;99.90;;;;;;5020676;28;20217;-79
2022/07/03 08:18:04;;;;;;;1.38;1.13;;;24.10;99.90;;;;;;5053565;28;20212;-79
2022/07/03 08:20:30;;;;;;;8.55;1.65;;;24.20;99.90;;;;;;5052430;28;20169;-79
2022/07/03 08:22:56;;;;;;;1.50;1.40;;;24.30;99.90;;;;;;5053706;28;20204;-79
2022/07/03 08:25:22;;;;;;;1.40;1.30;;;24.40;99.90;;;;;;5036967;28;20193;-79
2022/07/03 08:27:48;;;;;;;2.00;1.35;;;24.30;99.90;;;;;;5070169;28;20181;-79
2022/07/03 08:30:17;;;;;;;1.73;1.30;;;24.40;99.90;;;;;;5054551;28;20224;-78
2022/07/03 08:32:46;;;;;;;1.55;1.40;;;24.50;99.90;;;;;;5054482;28;20162;-79
2022/07/03 08:35:12;;;;;;;1.52;1.42;;;24.60;99.90;;;;;;5036611;28;20200;-79
2022/07/03 08:37:40;;;;;;;2.38;1.60;;;24.70;99.90;;;;;;5054441;28;20166;-78
2022/07/03 08:40:07;;;;;;;2.60;1.30;;;24.80;99.90;;;;;;5053293;28;20185;-78
2022/07/03 08:42:36;;;;;;;1.40;1.30;;;24.80;99.70;;;;;;5052877;28;20178;-78
2022/07/03 08:45:02;;;;;;;1.88;1.40;;;25.00;99.60;;;;;;5052806;28;20197;-78
2022/07/03 08:47:31;;;;;;;3.90;1.30;;;25.10;98.90;;;;;;5020020;28;20193;-78
2022/07/03 08:50:00;;;;;;;2.65;1.45;;;25.20;99.70;;;;;;5020388;28;20212;-78
2022/07/03 08:52:26;;;;;;;2.53;1.23;;;25.30;98.30;;;;;;5052838;28;20228;-78
2022/07/03 08:54:52;;;;;;;1.50;1.40;;;25.40;97.30;;;;;;5036341;28;20214;-78
2022/07/03 08:57:18;;;;;;;2.20;1.40;;;25.50;97.40;;;;;;5036372;28;20235;-77
2022/07/03 08:59:49;;;;;;;1.40;1.30;;;25.60;97.20;;;;;;5052952;28;20247;-78
2022/07/03 09:02:16;;;;;;;2.22;1.42;;;25.80;96.80;;;;;;5052803;28;20201;-78
2022/07/03 09:04:42;;;;;;;1.27;1.17;;;25.90;96.00;;;;;;5036430;28;20204;-78
2022/07/03 09:07:08;;;;;;;1.83;1.13;;;26.10;95.10;;;;;;5036336;28;20248;-78
2022/07/03 09:09:34;;;;;;;2.45;1.30;;;26.00;94.70;;;;;;5036140;28;20209;-79
2022/07/03 09:12:00;;;;;;;1.40;1.30;;;26.30;95.60;;;;;;5052750;28;20626;-79
2022/07/03 09:14:25;;;;;;;1.33;1.23;;;26.40;94.00;;;;;;5053816;28;20194;-78
2022/07/03 09:16:51;;;;;;;1.95;1.40;;;26.40;92.70;;;;;;5036201;28;20197;-79
2022/07/03 09:19:41;;;;;;;1.50;1.20;;;26.50;92.10;;;;;;5037028;28;20181;-78
2022/07/03 09:22:20;;;;;;;1.20;1.05;;;26.70;91.10;;;;;;5053701;28;20243;-78
2022/07/03 09:24:46;;;;;;;1.95;1.38;;;26.80;85.40;;;;;;5052528;28;20228;-78
2022/07/03 09:27:17;;;;;;;1.35;1.23;;;26.80;86.00;;;;;;5052419;28;20641;-78
2022/07/03 09:30:09;;;;;;;1.75;1.20;;;26.90;81.80;;;;;;5036126;28;20233;-78
2022/07/03 09:32:38;;;;;;;1.52;1.13;;;27.00;82.90;;;;;;5048834;28;20213;-79
2022/07/03 09:35:14;;;;;;;1.88;1.10;;;27.10;81.50;;;;;;5052726;28;20200;-79
2022/07/03 09:37:47;;;;;;;1.65;1.17;;;27.20;83.10;;;;;;5036605;28;20659;-79
2022/07/03 09:40:12;;;;;;;1.80;1.10;;;27.30;80.50;;;;;;5053323;28;20178;-78
2022/07/03 09:42:38;;;;;;;1.98;1.13;;;27.50;75.60;;;;;;5035236;28;20550;-78
2022/07/03 09:45:04;;;;;;;2.38;1.20;;;27.60;76.90;;;;;;5018712;28;20193;-79
2022/07/03 09:47:30;;;;;;;1.88;1.13;;;28.00;76.70;;;;;;5034700;28;20177;-79
2022/07/03 09:50:04;;;;;;;1.15;1.00;;;28.00;73.00;;;;;;5035269;28;20206;-78
2022/07/03 09:52:29;;;;;;;1.40;1.00;;;28.00;68.10;;;;;;5051815;28;20180;-79
2022/07/03 09:54:59;;;;;;;1.70;1.00;;;28.00;65.10;;;;;;5059043;22;20253;-79
2022/07/03 09:57:27;;;;;;;1.17;1.08;;;28.00;65.00;;;;;;5015886;28;20250;-79
2022/07/03 10:00:08;;;;;;;1.10;1.00;;;28.10;61.10;;;;;;5015775;28;20228;-79
2022/07/03 10:02:33;;;;;;;2.25;1.10;;;28.20;60.40;;;;;;5015697;28;20178;-79
2022/07/03 10:05:12;;;;;;;1.02;0.90;;;28.20;58.30;;;;;;4999665;28;20220;-79
2022/07/03 10:08:01;;;;;;;1.33;1.00;;;28.10;57.00;;;;;;4999416;28;20181;-79
2022/07/03 10:10:32;;;;;;;0.90;0.90;;;28.30;58.00;;;;;;5015447;28;20234;-79
2022/07/03 10:12:59;;;;;;;2.05;1.00;;;28.50;55.40;;;;;;5015054;28;20178;-79
2022/07/03 10:15:27;;;;;;;1.00;1.00;;;28.60;58.20;;;;;;5032662;28;20194;-79
2022/07/03 10:17:56;;;;;;;2.60;1.00;;;28.80;57.80;;;;;;4999711;28;20183;-79
2022/07/03 10:20:29;;;;;;;1.45;1.20;;;28.90;56.10;;;;;;4999794;28;20213;-79
2022/07/03 10:22:55;;;;;;;1.20;1.10;;;28.80;55.10;;;;;;4999656;28;20170;-79
2022/07/03 10:25:22;;;;;;;1.10;1.05;;;28.80;55.90;;;;;;4998982;28;20208;-79
2022/07/03 10:27:49;;;;;;;1.10;1.00;;;28.80;55.50;;;;;;5015607;28;20178;-79
2022/07/03 10:30:16;;;;;;;1.25;1.13;;;28.80;56.10;;;;;;5032718;28;20194;-79
2022/07/03 10:32:45;;;;;;;1.10;1.00;;;29.00;56.50;;;;;;4998312;28;20228;-79
2022/07/03 10:35:13;;;;;;;1.50;1.20;;;29.20;57.40;;;;;;4998829;28;20209;-79
2022/07/03 10:38:02;;;;;;;1.73;1.20;;;29.30;56.00;;;;;;5015221;28;20240;-78
2022/07/03 10:46:32;;;;;;;2.13;1.20;;;29.50;54.90;;;;;;5017632;28;20201;-79
2022/07/03 10:49:08;;;;;;;1.20;1.10;;;29.40;54.10;;;;;;5015008;28;20264;-79
2022/07/03 10:52:00;;;;;;;0.90;0.90;;;29.30;54.20;;;;;;4999130;28;20170;-79
2022/07/03 10:54:48;;;;;;;1.30;1.10;;;29.50;54.90;;;;;;5006900;28;20667;-79
2022/07/03 10:57:17;;;;;;;1.00;1.00;;;29.50;53.00;;;;;;5020655;28;20186;-79
2022/07/03 10:59:46;;;;;;;1.10;1.00;;;29.40;53.20;;;;;;5023185;28;20178;-79
2022/07/03 11:02:21;;;;;;;1.58;1.10;;;29.50;53.90;;;;;;5014326;28;20228;-79
2022/07/03 11:04:59;;;;;;;1.90;1.30;;;29.90;55.20;;;;;;5014470;28;20560;-77
2022/07/03 11:07:31;;;;;;;1.30;1.20;;;29.90;54.00;;;;;;5015006;28;20205;-78
2022/07/03 11:10:09;;;;;;;1.10;1.00;;;29.90;53.00;;;;;;5032618;28;20190;-78
2022/07/03 11:12:57;;;;;;;1.20;1.10;;;29.40;53.50;;;;;;5014942;28;20170;-78
2022/07/03 11:15:31;;;;;;;4.18;1.20;;;29.20;54.10;;;;;;5032709;28;20691;-78
2022/07/03 11:18:17;;;;;;;3.63;1.10;;;29.70;54.30;;;;;;5032469;28;20170;-77
2022/07/03 11:20:42;;;;;;;1.17;1.08;;;29.30;53.80;;;;;;5014288;28;20277;-78
2022/07/03 11:23:23;;;;;;;2.13;1.27;;;28.80;53.90;;;;;;5032250;28;20249;-78
2022/07/03 11:25:51;;;;;;;1.63;1.10;;;29.00;55.60;;;;;;5014715;28;20277;-78
2022/07/03 11:28:32;;;;;;;2.53;1.30;;;29.40;53.90;;;;;;4998243;28;20645;-78
2022/07/03 11:31:18;;;;;;;1.20;1.10;;;29.90;53.40;;;;;;5014990;28;20170;-77
2022/07/03 11:33:45;;;;;;;3.15;1.17;;;30.10;52.80;;;;;;5014418;28;20185;-78
2022/07/03 11:36:16;;;;;;;1.63;0.98;;;30.40;51.50;;;;;;5014702;28;20284;-78
2022/07/03 11:38:44;;;;;;;2.15;1.17;;;30.30;51.70;;;;;;5014900;28;20174;-78
2022/07/03 11:41:11;;;;;;;1.55;0.90;;;30.30;50.50;;;;;;4998772;28;20190;-78
2022/07/03 11:43:37;;;;;;;1.90;1.00;;;30.00;50.50;;;;;;4998140;28;20596;-78
2022/07/03 11:46:03;;;;;;;1.10;1.00;;;30.30;52.20;;;;;;5014484;28;20281;-77
2022/07/03 11:48:30;;;;;;;1.55;1.10;;;30.70;50.90;;;;;;5001368;28;20180;-76
2022/07/03 11:51:04;;;;;;;1.92;1.10;;;30.90;51.60;;;;;;5014631;28;20177;-77
2022/07/03 11:53:35;;;;;;;1.10;1.00;;;31.00;49.50;;;;;;5014569;28;20166;-75
2022/07/03 11:56:07;;;;;;;1.15;0.95;;;31.10;50.40;;;;;;5017402;28;20209;-75
2022/07/03 11:58:50;;;;;;;1.10;1.00;;;31.00;49.10;;;;;;5001337;28;20182;-77
2022/07/03 12:01:30;;;;;;;0.98;0.98;;;31.00;48.80;;;;;;5034124;28;20199;-77
2022/07/03 12:04:07;;;;;;;1.70;0.95;;;30.90;49.50;;;;;;5016823;28;20174;-77
2022/07/03 12:06:37;;;;;;;0.98;0.98;;;30.70;47.50;;;;;;5017620;28;20189;-77
2022/07/03 12:09:11;;;;;;;1.13;1.05;;;30.30;49.10;;;;;;5017263;28;20681;-77
2022/07/03 12:11:36;;;;;;;1.35;1.05;;;30.50;49.80;;;;;;5002144;28;20696;-77
2022/07/03 12:14:02;;;;;;;1.10;1.00;;;30.70;50.10;;;;;;5001096;28;20289;-77
2022/07/03 12:16:34;;;;;;;1.13;1.02;;;30.70;47.50;;;;;;5001244;28;20594;-77
2022/07/03 12:19:05;;;;;;;1.23;1.00;;;30.80;47.10;;;;;;5000862;28;20183;-77
2022/07/03 12:21:38;;;;;;;1.13;1.02;;;30.90;46.80;;;;;;5000916;28;20174;-78
2022/07/03 12:24:12;;;;;;;1.58;1.10;;;31.10;47.00;;;;;;5000524;28;20286;-77
2022/07/03 12:26:38;;;;;;;1.65;1.10;;;31.30;46.70;;;;;;5017261;28;20198;-77
2022/07/03 12:29:08;;;;;;;1.88;1.00;;;31.60;47.00;;;;;;5016950;28;20668;-77
2022/07/03 12:31:34;;;;;;;0.93;0.93;;;31.80;46.60;;;;;;5017170;28;20159;-77
2022/07/03 12:34:00;;;;;;;1.50;1.35;;;31.50;45.10;;;;;;5016894;28;20182;-78
2022/07/03 12:36:27;;;;;;;1.40;1.30;;;31.70;46.30;;;;;;5016901;28;20198;-77
2022/07/03 12:38:57;;;;;;;1.60;1.20;;;32.00;45.80;;;;;;5016945;28;20166;-77
2022/07/03 12:41:24;;;;;;;4.28;2.67;;;31.50;45.40;;;;;;5016858;28;20178;-77
2022/07/03 12:43:51;;;;;;;1.15;1.05;;;31.00;46.60;;;;;;5000322;28;20217;-77
2022/07/03 12:46:25;;;;;;;1.48;1.38;;;30.20;47.20;;;;;;5000249;28;20198;-77
2022/07/03 12:48:56;;;;;;;1.33;1.20;;;29.90;48.90;;;;;;5000156;28;20213;-77
2022/07/03 12:51:38;;;;;;;1.20;1.00;;;30.30;49.20;;;;;;5034203;28;20649;-77
2022/07/03 12:54:03;;;;;;;1.20;1.10;;;31.00;46.80;;;;;;5016638;28;20261;-77
2022/07/03 12:56:29;;;;;;;1.30;1.20;;;31.20;46.50;;;;;;4983761;28;20309;-77
2022/07/03 13:01:38;;;;;;;4.22;1.30;;;31.40;46.10;;;;;;5019312;28;20308;-77
2022/07/03 13:04:07;;;;;;;1.20;1.10;;;30.20;46.90;;;;;;5000339;28;20246;-77
2022/07/03 13:06:33;;;;;;;1.48;1.20;;;30.30;47.90;;;;;;4999795;28;20198;-77
2022/07/03 13:09:01;;;;;;;1.33;1.20;;;30.60;47.40;;;;;;5015886;28;20252;-77
2022/07/03 13:11:35;;;;;;;1.67;1.10;;;30.80;47.80;;;;;;4999954;28;20699;-77
2022/07/03 13:14:15;;;;;;;1.67;1.35;;;30.30;48.10;;;;;;5033791;28;20174;-77
2022/07/03 13:16:45;;;;;;;1.55;1.20;;;29.80;48.80;;;;;;4999951;28;20198;-77